Time;durP1;ratioP1;P1;durP2;ratioP2;P2;SDS_P1;SDS_P2;PMS_P1;PMS_P2;Temp;Humidity;BMP_temperature;BMP_pressure;BME280_temperature;BME280_humidity;BME280_pressure;Samples;Min_cycle;Max_cycle;Signal;HPM_P1;HPM_P2
2020/09/04 00:00:23;;;;;;;3.25;2.95;;;;;;;16.05;71.0752;96031.62;;;;
2020/09/04 00:01:24;;;;;;;3.25;2.95;;;;;;;16.05;71.0752;96031.62;;;;
2020/09/04 00:02:24;;;;;;;3.25;2.95;;;;;;;16.05;71.0752;96031.62;;;;
2020/09/04 00:03:25;;;;;;;3.25;2.95;;;;;;;16.05;71.0752;96031.62;;;;
2020/09/04 00:04:25;;;;;;;3.25;2.95;;;;;;;16.05;71.0752;96031.62;;;;
2020/09/04 00:05:26;;;;;;;3.25;2.95;;;;;;;16.05;71.0752;96031.62;;;;
2020/09/04 00:06:26;;;;;;;3.25;2.95;;;;;;;16.05;71.0752;96031.62;;;;
2020/09/04 00:07:27;;;;;;;3.25;2.95;;;;;;;16.05;71.0752;96031.62;;;;
2020/09/04 00:08:27;;;;;;;3.25;2.95;;;;;;;16.05;71.0752;96031.62;;;;
2020/09/04 00:09:28;;;;;;;3.25;2.95;;;;;;;16.05;71.0752;96031.62;;;;
2020/09/04 00:10:28;;;;;;;3;2.8;;;;;;;16.13;71.56543;96035.71;;;;
2020/09/04 00:11:29;;;;;;;3;2.8;;;;;;;16.13;71.56543;96035.71;;;;
2020/09/04 00:12:29;;;;;;;3;2.8;;;;;;;16.13;71.56543;96035.71;;;;
2020/09/04 00:13:30;;;;;;;3;2.8;;;;;;;16.13;71.56543;96035.71;;;;
2020/09/04 00:14:30;;;;;;;3;2.8;;;;;;;16.13;71.56543;96035.71;;;;
2020/09/04 00:15:31;;;;;;;3;2.8;;;;;;;16.13;71.56543;96035.71;;;;
2020/09/04 00:16:31;;;;;;;3;2.8;;;;;;;16.13;71.56543;96035.71;;;;
2020/09/04 00:17:32;;;;;;;3;2.8;;;;;;;16.13;71.56543;96035.71;;;;
2020/09/04 00:18:32;;;;;;;3;2.8;;;;;;;16.13;71.56543;96035.71;;;;
2020/09/04 00:19:33;;;;;;;3;2.8;;;;;;;16.13;71.56543;96035.71;;;;
2020/09/04 00:20:33;;;;;;;3.9;3.2;;;;;;;16.13;71.62988;96028.89;;;;
2020/09/04 00:21:34;;;;;;;3.9;3.2;;;;;;;16.13;71.62988;96028.89;;;;
2020/09/04 00:22:34;;;;;;;3.9;3.2;;;;;;;16.13;71.62988;96028.89;;;;
2020/09/04 00:23:35;;;;;;;3.9;3.2;;;;;;;16.13;71.62988;96028.89;;;;
2020/09/04 00:24:35;;;;;;;3.9;3.2;;;;;;;16.13;71.62988;96028.89;;;;
2020/09/04 00:25:36;;;;;;;3.9;3.2;;;;;;;16.13;71.62988;96028.89;;;;
2020/09/04 00:26:36;;;;;;;3.9;3.2;;;;;;;16.13;71.62988;96028.89;;;;
2020/09/04 00:27:37;;;;;;;3.9;3.2;;;;;;;16.13;71.62988;96028.89;;;;
2020/09/04 00:28:37;;;;;;;3.9;3.2;;;;;;;16.13;71.62988;96028.89;;;;
2020/09/04 00:29:38;;;;;;;3.9;3.2;;;;;;;16.13;71.62988;96028.89;;;;
2020/09/04 00:30:38;;;;;;;3.9;3.2;;;;;;;16.13;71.62988;96028.89;;;;
2020/09/04 00:31:39;;;;;;;5.1;2.95;;;;;;;16.18;72.07324;96036.19;;;;
2020/09/04 00:32:40;;;;;;;5.1;2.95;;;;;;;16.18;72.07324;96036.19;;;;
2020/09/04 00:33:40;;;;;;;5.1;2.95;;;;;;;16.18;72.07324;96036.19;;;;
2020/09/04 00:34:41;;;;;;;5.1;2.95;;;;;;;16.18;72.07324;96036.19;;;;
2020/09/04 00:35:41;;;;;;;5.1;2.95;;;;;;;16.18;72.07324;96036.19;;;;
2020/09/04 00:36:42;;;;;;;5.1;2.95;;;;;;;16.18;72.07324;96036.19;;;;
2020/09/04 00:37:42;;;;;;;5.1;2.95;;;;;;;16.18;72.07324;96036.19;;;;
2020/09/04 00:38:43;;;;;;;5.1;2.95;;;;;;;16.18;72.07324;96036.19;;;;
2020/09/04 00:39:43;;;;;;;5.1;2.95;;;;;;;16.18;72.07324;96036.19;;;;
2020/09/04 00:40:43;;;;;;;5.1;2.95;;;;;;;16.18;72.07324;96036.19;;;;
2020/09/04 00:42:01;;;;;;;4.55;3.1;;;;;;;16.15;72.38281;96040.37;;;;
2020/09/04 00:43:01;;;;;;;4.55;3.1;;;;;;;16.15;72.38281;96040.37;;;;
2020/09/04 00:44:03;;;;;;;4.55;3.1;;;;;;;16.15;72.38281;96040.37;;;;
2020/09/04 00:45:03;;;;;;;4.55;3.1;;;;;;;16.15;72.38281;96040.37;;;;
2020/09/04 00:46:03;;;;;;;4.55;3.1;;;;;;;16.15;72.38281;96040.37;;;;
2020/09/04 00:47:04;;;;;;;4.55;3.1;;;;;;;16.15;72.38281;96040.37;;;;
2020/09/04 00:48:05;;;;;;;4.55;3.1;;;;;;;16.15;72.38281;96040.37;;;;
2020/09/04 00:49:06;;;;;;;4.55;3.1;;;;;;;16.15;72.38281;96040.37;;;;
2020/09/04 00:50:06;;;;;;;4.55;3.1;;;;;;;16.15;72.38281;96040.37;;;;
2020/09/04 00:51:07;;;;;;;4.55;3.1;;;;;;;16.15;72.38281;96040.37;;;;
2020/09/04 00:52:07;;;;;;;4.55;3.1;;;;;;;16.15;72.38281;96040.37;;;;
2020/09/04 00:53:19;;;;;;;3.4;3.1;;;;;;;16.2;72.94336;96042.32;;;;
2020/09/04 00:54:19;;;;;;;3.4;3.1;;;;;;;16.2;72.94336;96042.32;;;;
2020/09/04 00:55:20;;;;;;;3.4;3.1;;;;;;;16.2;72.94336;96042.32;;;;
2020/09/04 00:56:51;;;;;;;3.4;3.1;;;;;;;16.2;72.94336;96042.32;;;;
2020/09/04 00:57:58;;;;;;;3.4;3.1;;;;;;;16.2;72.94336;96042.32;;;;
2020/09/04 00:58:59;;;;;;;3.4;3.1;;;;;;;16.2;72.94336;96042.32;;;;
2020/09/04 01:00:00;;;;;;;3.4;3.1;;;;;;;16.2;72.94336;96042.32;;;;
2020/09/04 01:01:04;;;;;;;3.4;3.1;;;;;;;16.2;72.94336;96042.32;;;;
2020/09/04 01:02:05;;;;;;;3.4;3.1;;;;;;;16.2;72.94336;96042.32;;;;
2020/09/04 01:03:05;;;;;;;3.2;2.9;;;;;;;16.17;73.19922;96036.83;;;;
2020/09/04 01:04:06;;;;;;;3.2;2.9;;;;;;;16.17;73.19922;96036.83;;;;
2020/09/04 01:05:08;;;;;;;3.2;2.9;;;;;;;16.17;73.19922;96036.83;;;;
2020/09/04 01:06:09;;;;;;;3.2;2.9;;;;;;;16.17;73.19922;96036.83;;;;
2020/09/04 01:07:10;;;;;;;3.2;2.9;;;;;;;16.17;73.19922;96036.83;;;;
2020/09/04 01:08:11;;;;;;;3.2;2.9;;;;;;;16.17;73.19922;96036.83;;;;
2020/09/04 01:09:12;;;;;;;3.2;2.9;;;;;;;16.17;73.19922;96036.83;;;;
2020/09/04 01:10:12;;;;;;;3.2;2.9;;;;;;;16.17;73.19922;96036.83;;;;
2020/09/04 01:11:12;;;;;;;3.2;2.9;;;;;;;16.17;73.19922;96036.83;;;;
2020/09/04 01:12:13;;;;;;;3.2;2.9;;;;;;;16.17;73.19922;96036.83;;;;
2020/09/04 01:13:13;;;;;;;3.2;2.9;;;;;;;16.17;73.19922;96036.83;;;;
2020/09/04 01:14:14;;;;;;;3.35;3.05;;;;;;;16.2;73.64844;96028.58;;;;
2020/09/04 01:15:14;;;;;;;3.35;3.05;;;;;;;16.2;73.64844;96028.58;;;;
2020/09/04 01:16:15;;;;;;;3.35;3.05;;;;;;;16.2;73.64844;96028.58;;;;
2020/09/04 01:17:15;;;;;;;3.35;3.05;;;;;;;16.2;73.64844;96028.58;;;;
2020/09/04 01:18:16;;;;;;;3.35;3.05;;;;;;;16.2;73.64844;96028.58;;;;
2020/09/04 01:19:16;;;;;;;3.35;3.05;;;;;;;16.2;73.64844;96028.58;;;;
2020/09/04 01:20:17;;;;;;;3.35;3.05;;;;;;;16.2;73.64844;96028.58;;;;
2020/09/04 01:21:21;;;;;;;3.35;3.05;;;;;;;16.2;73.64844;96028.58;;;;
2020/09/04 01:22:22;;;;;;;3.35;3.05;;;;;;;16.2;73.64844;96028.58;;;;
2020/09/04 01:23:23;;;;;;;3.35;3.05;;;;;;;16.2;73.64844;96028.58;;;;
2020/09/04 01:24:23;;;;;;;3.15;2.9;;;;;;;16.18;74.16406;96028.54;;;;
2020/09/04 01:25:24;;;;;;;3.15;2.9;;;;;;;16.18;74.16406;96028.54;;;;
2020/09/04 01:26:24;;;;;;;3.15;2.9;;;;;;;16.18;74.16406;96028.54;;;;
2020/09/04 01:27:25;;;;;;;3.15;2.9;;;;;;;16.18;74.16406;96028.54;;;;
2020/09/04 01:28:25;;;;;;;3.15;2.9;;;;;;;16.18;74.16406;96028.54;;;;
2020/09/04 01:29:25;;;;;;;3.15;2.9;;;;;;;16.18;74.16406;96028.54;;;;
2020/09/04 01:30:26;;;;;;;3.15;2.9;;;;;;;16.18;74.16406;96028.54;;;;
2020/09/04 01:31:26;;;;;;;3.15;2.9;;;;;;;16.18;74.16406;96028.54;;;;
2020/09/04 01:32:27;;;;;;;3.15;2.9;;;;;;;16.18;74.16406;96028.54;;;;
2020/09/04 01:33:27;;;;;;;3.15;2.9;;;;;;;16.18;74.16406;96028.54;;;;
2020/09/04 01:34:28;;;;;;;3.15;2.9;;;;;;;16.18;74.16406;96028.54;;;;
2020/09/04 01:35:28;;;;;;;3.5;3.299999;;;;;;;16.24;74.37207;96025.23;;;;
2020/09/04 01:36:29;;;;;;;3.5;3.299999;;;;;;;16.24;74.37207;96025.23;;;;
2020/09/04 01:37:29;;;;;;;3.5;3.299999;;;;;;;16.24;74.37207;96025.23;;;;
2020/09/04 01:38:30;;;;;;;3.5;3.299999;;;;;;;16.24;74.37207;96025.23;;;;
2020/09/04 01:39:30;;;;;;;3.5;3.299999;;;;;;;16.24;74.37207;96025.23;;;;
2020/09/04 01:40:31;;;;;;;3.5;3.299999;;;;;;;16.24;74.37207;96025.23;;;;
2020/09/04 01:41:31;;;;;;;3.5;3.299999;;;;;;;16.24;74.37207;96025.23;;;;
2020/09/04 01:42:36;;;;;;;3.5;3.299999;;;;;;;16.24;74.37207;96025.23;;;;
2020/09/04 01:43:36;;;;;;;3.5;3.299999;;;;;;;16.24;74.37207;96025.23;;;;
2020/09/04 01:44:37;;;;;;;3.5;3.299999;;;;;;;16.24;74.37207;96025.23;;;;
2020/09/04 01:45:37;;;;;;;3.55;3.25;;;;;;;16.23;74.54395;96025.34;;;;
2020/09/04 01:46:37;;;;;;;3.55;3.25;;;;;;;16.23;74.54395;96025.34;;;;
2020/09/04 01:47:38;;;;;;;3.55;3.25;;;;;;;16.23;74.54395;96025.34;;;;
2020/09/04 01:48:39;;;;;;;3.55;3.25;;;;;;;16.23;74.54395;96025.34;;;;
2020/09/04 01:49:39;;;;;;;3.55;3.25;;;;;;;16.23;74.54395;96025.34;;;;
2020/09/04 01:50:40;;;;;;;3.55;3.25;;;;;;;16.23;74.54395;96025.34;;;;
2020/09/04 01:51:40;;;;;;;3.55;3.25;;;;;;;16.23;74.54395;96025.34;;;;
2020/09/04 01:52:41;;;;;;;3.55;3.25;;;;;;;16.23;74.54395;96025.34;;;;
2020/09/04 01:53:41;;;;;;;3.55;3.25;;;;;;;16.23;74.54395;96025.34;;;;
2020/09/04 01:54:43;;;;;;;3.55;3.25;;;;;;;16.23;74.54395;96025.34;;;;
2020/09/04 01:55:43;;;;;;;3.55;3.25;;;;;;;16.23;74.54395;96025.34;;;;
2020/09/04 01:56:44;;;;;;;3.5;3.2;;;;;;;16.26;74.94824;96022.25;;;;
2020/09/04 01:57:44;;;;;;;3.5;3.2;;;;;;;16.26;74.94824;96022.25;;;;
2020/09/04 01:58:44;;;;;;;3.5;3.2;;;;;;;16.26;74.94824;96022.25;;;;
2020/09/04 01:59:45;;;;;;;3.5;3.2;;;;;;;16.26;74.94824;96022.25;;;;
2020/09/04 02:00:46;;;;;;;3.5;3.2;;;;;;;16.26;74.94824;96022.25;;;;
2020/09/04 02:01:46;;;;;;;3.5;3.2;;;;;;;16.26;74.94824;96022.25;;;;
2020/09/04 02:02:46;;;;;;;3.5;3.2;;;;;;;16.26;74.94824;96022.25;;;;
2020/09/04 02:03:47;;;;;;;3.5;3.2;;;;;;;16.26;74.94824;96022.25;;;;
2020/09/04 02:04:48;;;;;;;3.5;3.2;;;;;;;16.26;74.94824;96022.25;;;;
2020/09/04 02:05:48;;;;;;;3.5;3.2;;;;;;;16.26;74.94824;96022.25;;;;
2020/09/04 02:06:49;;;;;;;3.5;3.2;;;;;;;16.26;74.94824;96022.25;;;;
2020/09/04 02:07:49;;;;;;;3.6;3.3;;;;;;;16.21;75.43848;96016.71;;;;
2020/09/04 02:08:50;;;;;;;3.6;3.3;;;;;;;16.21;75.43848;96016.71;;;;
2020/09/04 02:09:50;;;;;;;3.6;3.3;;;;;;;16.21;75.43848;96016.71;;;;
2020/09/04 02:10:50;;;;;;;3.6;3.3;;;;;;;16.21;75.43848;96016.71;;;;
2020/09/04 02:11:51;;;;;;;3.6;3.3;;;;;;;16.21;75.43848;96016.71;;;;
2020/09/04 02:12:51;;;;;;;3.6;3.3;;;;;;;16.21;75.43848;96016.71;;;;
2020/09/04 02:13:52;;;;;;;3.6;3.3;;;;;;;16.21;75.43848;96016.71;;;;
2020/09/04 02:14:53;;;;;;;3.6;3.3;;;;;;;16.21;75.43848;96016.71;;;;
2020/09/04 02:15:53;;;;;;;3.6;3.3;;;;;;;16.21;75.43848;96016.71;;;;
2020/09/04 02:16:54;;;;;;;3.6;3.3;;;;;;;16.21;75.43848;96016.71;;;;
2020/09/04 02:17:55;;;;;;;3.5;3.2;;;;;;;16.22;75.78711;96022.45;;;;
2020/09/04 02:18:55;;;;;;;3.5;3.2;;;;;;;16.22;75.78711;96022.45;;;;
2020/09/04 02:19:56;;;;;;;3.5;3.2;;;;;;;16.22;75.78711;96022.45;;;;
2020/09/04 02:20:56;;;;;;;3.5;3.2;;;;;;;16.22;75.78711;96022.45;;;;
2020/09/04 02:21:56;;;;;;;3.5;3.2;;;;;;;16.22;75.78711;96022.45;;;;
2020/09/04 02:22:57;;;;;;;3.5;3.2;;;;;;;16.22;75.78711;96022.45;;;;
2020/09/04 02:23:58;;;;;;;3.5;3.2;;;;;;;16.22;75.78711;96022.45;;;;
2020/09/04 02:24:58;;;;;;;3.5;3.2;;;;;;;16.22;75.78711;96022.45;;;;
2020/09/04 02:25:59;;;;;;;3.5;3.2;;;;;;;16.22;75.78711;96022.45;;;;
2020/09/04 02:26:59;;;;;;;3.5;3.2;;;;;;;16.22;75.78711;96022.45;;;;
2020/09/04 02:27:59;;;;;;;3.5;3.2;;;;;;;16.22;75.78711;96022.45;;;;
2020/09/04 02:29:00;;;;;;;3.55;3.25;;;;;;;16.18;76.33105;96015.86;;;;
2020/09/04 02:30:00;;;;;;;3.55;3.25;;;;;;;16.18;76.33105;96015.86;;;;
2020/09/04 02:31:01;;;;;;;3.55;3.25;;;;;;;16.18;76.33105;96015.86;;;;
2020/09/04 02:32:02;;;;;;;3.55;3.25;;;;;;;16.18;76.33105;96015.86;;;;
2020/09/04 02:33:02;;;;;;;3.55;3.25;;;;;;;16.18;76.33105;96015.86;;;;
2020/09/04 02:34:02;;;;;;;3.55;3.25;;;;;;;16.18;76.33105;96015.86;;;;
2020/09/04 02:35:03;;;;;;;3.55;3.25;;;;;;;16.18;76.33105;96015.86;;;;
2020/09/04 02:36:03;;;;;;;3.55;3.25;;;;;;;16.18;76.33105;96015.86;;;;
2020/09/04 02:37:04;;;;;;;3.55;3.25;;;;;;;16.18;76.33105;96015.86;;;;
2020/09/04 02:38:04;;;;;;;3.55;3.25;;;;;;;16.18;76.33105;96015.86;;;;
2020/09/04 02:39:05;;;;;;;3.65;3.3;;;;;;;16.22;76.68652;96020.15;;;;
2020/09/04 02:40:05;;;;;;;3.65;3.3;;;;;;;16.22;76.68652;96020.15;;;;
2020/09/04 02:41:06;;;;;;;3.65;3.3;;;;;;;16.22;76.68652;96020.15;;;;
2020/09/04 02:42:06;;;;;;;3.65;3.3;;;;;;;16.22;76.68652;96020.15;;;;
2020/09/04 02:43:07;;;;;;;3.65;3.3;;;;;;;16.22;76.68652;96020.15;;;;
2020/09/04 02:44:07;;;;;;;3.65;3.3;;;;;;;16.22;76.68652;96020.15;;;;
2020/09/04 02:45:08;;;;;;;3.65;3.3;;;;;;;16.22;76.68652;96020.15;;;;
2020/09/04 02:46:09;;;;;;;3.65;3.3;;;;;;;16.22;76.68652;96020.15;;;;
2020/09/04 02:47:09;;;;;;;3.65;3.3;;;;;;;16.22;76.68652;96020.15;;;;
2020/09/04 02:48:10;;;;;;;3.65;3.3;;;;;;;16.22;76.68652;96020.15;;;;
2020/09/04 02:49:10;;;;;;;3.65;3.3;;;;;;;16.22;76.68652;96020.15;;;;
2020/09/04 02:50:11;;;;;;;3.1;2.900001;;;;;;;16.2;76.71582;96026.81;;;;
2020/09/04 02:51:11;;;;;;;3.1;2.900001;;;;;;;16.2;76.71582;96026.81;;;;
2020/09/04 02:52:12;;;;;;;3.1;2.900001;;;;;;;16.2;76.71582;96026.81;;;;
2020/09/04 02:53:12;;;;;;;3.1;2.900001;;;;;;;16.2;76.71582;96026.81;;;;
2020/09/04 02:54:13;;;;;;;3.1;2.900001;;;;;;;16.2;76.71582;96026.81;;;;
2020/09/04 02:55:13;;;;;;;3.1;2.900001;;;;;;;16.2;76.71582;96026.81;;;;
2020/09/04 02:56:14;;;;;;;3.1;2.900001;;;;;;;16.2;76.71582;96026.81;;;;
2020/09/04 02:57:14;;;;;;;3.1;2.900001;;;;;;;16.2;76.71582;96026.81;;;;
2020/09/04 02:58:15;;;;;;;3.1;2.900001;;;;;;;16.2;76.71582;96026.81;;;;
2020/09/04 02:59:15;;;;;;;3.1;2.900001;;;;;;;16.2;76.71582;96026.81;;;;
2020/09/04 03:00:15;;;;;;;3.45;3.1;;;;;;;16.25;77.12402;96020.58;;;;
2020/09/04 03:01:16;;;;;;;3.45;3.1;;;;;;;16.25;77.12402;96020.58;;;;
2020/09/04 03:02:17;;;;;;;3.45;3.1;;;;;;;16.25;77.12402;96020.58;;;;
2020/09/04 03:03:17;;;;;;;3.45;3.1;;;;;;;16.25;77.12402;96020.58;;;;
2020/09/04 03:04:18;;;;;;;3.45;3.1;;;;;;;16.25;77.12402;96020.58;;;;
2020/09/04 03:05:18;;;;;;;3.45;3.1;;;;;;;16.25;77.12402;96020.58;;;;
2020/09/04 03:06:19;;;;;;;3.45;3.1;;;;;;;16.25;77.12402;96020.58;;;;
2020/09/04 03:07:19;;;;;;;3.45;3.1;;;;;;;16.25;77.12402;96020.58;;;;
2020/09/04 03:08:20;;;;;;;3.45;3.1;;;;;;;16.25;77.12402;96020.58;;;;
2020/09/04 03:09:22;;;;;;;3.45;3.1;;;;;;;16.25;77.12402;96020.58;;;;
2020/09/04 03:10:23;;;;;;;3.45;3.1;;;;;;;16.25;77.12402;96020.58;;;;
2020/09/04 03:11:23;;;;;;;4.149999;3.4;;;;;;;16.21;77.08496;96024.34;;;;
2020/09/04 03:12:24;;;;;;;4.149999;3.4;;;;;;;16.21;77.08496;96024.34;;;;
2020/09/04 03:13:24;;;;;;;4.149999;3.4;;;;;;;16.21;77.08496;96024.34;;;;
2020/09/04 03:14:25;;;;;;;4.149999;3.4;;;;;;;16.21;77.08496;96024.34;;;;
2020/09/04 03:15:25;;;;;;;4.149999;3.4;;;;;;;16.21;77.08496;96024.34;;;;
2020/09/04 03:16:26;;;;;;;4.149999;3.4;;;;;;;16.21;77.08496;96024.34;;;;
2020/09/04 03:17:26;;;;;;;4.149999;3.4;;;;;;;16.21;77.08496;96024.34;;;;
2020/09/04 03:18:27;;;;;;;4.149999;3.4;;;;;;;16.21;77.08496;96024.34;;;;
2020/09/04 03:19:27;;;;;;;4.149999;3.4;;;;;;;16.21;77.08496;96024.34;;;;
2020/09/04 03:20:28;;;;;;;4.149999;3.4;;;;;;;16.21;77.08496;96024.34;;;;
2020/09/04 03:21:28;;;;;;;4.149999;3.4;;;;;;;16.21;77.08496;96024.34;;;;
2020/09/04 03:22:28;;;;;;;3.85;3.1;;;;;;;16.2;77.21387;96024.5;;;;
2020/09/04 03:23:29;;;;;;;3.85;3.1;;;;;;;16.2;77.21387;96024.5;;;;
2020/09/04 03:24:29;;;;;;;3.85;3.1;;;;;;;16.2;77.21387;96024.5;;;;
2020/09/04 03:25:30;;;;;;;3.85;3.1;;;;;;;16.2;77.21387;96024.5;;;;
2020/09/04 03:26:30;;;;;;;3.85;3.1;;;;;;;16.2;77.21387;96024.5;;;;
2020/09/04 03:27:31;;;;;;;3.85;3.1;;;;;;;16.2;77.21387;96024.5;;;;
2020/09/04 03:28:31;;;;;;;3.85;3.1;;;;;;;16.2;77.21387;96024.5;;;;
2020/09/04 03:29:32;;;;;;;3.85;3.1;;;;;;;16.2;77.21387;96024.5;;;;
2020/09/04 03:30:32;;;;;;;3.85;3.1;;;;;;;16.2;77.21387;96024.5;;;;
2020/09/04 03:31:33;;;;;;;3.85;3.1;;;;;;;16.2;77.21387;96024.5;;;;
2020/09/04 03:32:33;;;;;;;3.7;3.35;;;;;;;16.12;77.45898;96033.23;;;;
2020/09/04 03:33:34;;;;;;;3.7;3.35;;;;;;;16.12;77.45898;96033.23;;;;
2020/09/04 03:34:34;;;;;;;3.7;3.35;;;;;;;16.12;77.45898;96033.23;;;;
2020/09/04 03:35:35;;;;;;;3.7;3.35;;;;;;;16.12;77.45898;96033.23;;;;
2020/09/04 03:36:35;;;;;;;3.7;3.35;;;;;;;16.12;77.45898;96033.23;;;;
2020/09/04 03:37:35;;;;;;;3.7;3.35;;;;;;;16.12;77.45898;96033.23;;;;
2020/09/04 03:38:36;;;;;;;3.7;3.35;;;;;;;16.12;77.45898;96033.23;;;;
2020/09/04 03:39:36;;;;;;;3.7;3.35;;;;;;;16.12;77.45898;96033.23;;;;
2020/09/04 03:40:37;;;;;;;3.7;3.35;;;;;;;16.12;77.45898;96033.23;;;;
2020/09/04 03:41:37;;;;;;;3.7;3.35;;;;;;;16.12;77.45898;96033.23;;;;
2020/09/04 03:42:39;;;;;;;3.7;3.35;;;;;;;16.12;77.45898;96033.23;;;;
2020/09/04 03:43:40;;;;;;;3.35;3.05;;;;;;;16.09;77.87598;96026.9;;;;
2020/09/04 03:44:41;;;;;;;3.35;3.05;;;;;;;16.09;77.87598;96026.9;;;;
2020/09/04 03:45:42;;;;;;;3.35;3.05;;;;;;;16.09;77.87598;96026.9;;;;
2020/09/04 03:46:42;;;;;;;3.35;3.05;;;;;;;16.09;77.87598;96026.9;;;;
2020/09/04 03:47:43;;;;;;;3.35;3.05;;;;;;;16.09;77.87598;96026.9;;;;
2020/09/04 03:48:44;;;;;;;3.35;3.05;;;;;;;16.09;77.87598;96026.9;;;;
2020/09/04 03:49:47;;;;;;;3.35;3.05;;;;;;;16.09;77.87598;96026.9;;;;
2020/09/04 03:50:49;;;;;;;3.35;3.05;;;;;;;16.09;77.87598;96026.9;;;;
2020/09/04 03:51:49;;;;;;;3.35;3.05;;;;;;;16.09;77.87598;96026.9;;;;
2020/09/04 03:52:50;;;;;;;3.35;3.05;;;;;;;16.09;77.87598;96026.9;;;;
2020/09/04 03:53:52;;;;;;;3.7;3.25;;;;;;;16;78.1084;96043.4;;;;
2020/09/04 03:54:52;;;;;;;3.7;3.25;;;;;;;16;78.1084;96043.4;;;;
2020/09/04 03:55:53;;;;;;;3.7;3.25;;;;;;;16;78.1084;96043.4;;;;
2020/09/04 03:56:53;;;;;;;3.7;3.25;;;;;;;16;78.1084;96043.4;;;;
2020/09/04 03:57:54;;;;;;;3.7;3.25;;;;;;;16;78.1084;96043.4;;;;
2020/09/04 03:59:13;;;;;;;3.7;3.25;;;;;;;16;78.1084;96043.4;;;;
2020/09/04 04:00:13;;;;;;;3.7;3.25;;;;;;;16;78.1084;96043.4;;;;
2020/09/04 04:01:14;;;;;;;3.7;3.25;;;;;;;16;78.1084;96043.4;;;;
2020/09/04 04:02:15;;;;;;;3.7;3.25;;;;;;;16;78.1084;96043.4;;;;
2020/09/04 04:03:27;;;;;;;3.7;3.25;;;;;;;16;78.1084;96043.4;;;;
2020/09/04 04:04:27;;;;;;;3.5;3.2;;;;;;;15.99;78.3252;96038.09;;;;
2020/09/04 04:05:28;;;;;;;3.5;3.2;;;;;;;15.99;78.3252;96038.09;;;;
2020/09/04 04:06:28;;;;;;;3.5;3.2;;;;;;;15.99;78.3252;96038.09;;;;
2020/09/04 04:07:42;;;;;;;3.5;3.2;;;;;;;15.99;78.3252;96038.09;;;;
2020/09/04 04:08:42;;;;;;;3.5;3.2;;;;;;;15.99;78.3252;96038.09;;;;
2020/09/04 04:09:43;;;;;;;3.5;3.2;;;;;;;15.99;78.3252;96038.09;;;;
2020/09/04 04:10:43;;;;;;;3.5;3.2;;;;;;;15.99;78.3252;96038.09;;;;
2020/09/04 04:11:44;;;;;;;3.5;3.2;;;;;;;15.99;78.3252;96038.09;;;;
2020/09/04 04:12:46;;;;;;;3.5;3.2;;;;;;;15.99;78.3252;96038.09;;;;
2020/09/04 04:13:46;;;;;;;3.5;3.2;;;;;;;15.99;78.3252;96038.09;;;;
2020/09/04 04:14:47;;;;;;;3.5;3.2;;;;;;;15.99;78.3252;96038.09;;;;
2020/09/04 04:15:48;;;;;;;3.35;3.05;;;;;;;15.92;78.64844;96039.2;;;;
2020/09/04 04:16:48;;;;;;;3.35;3.05;;;;;;;15.92;78.64844;96039.2;;;;
2020/09/04 04:17:51;;;;;;;3.35;3.05;;;;;;;15.92;78.64844;96039.2;;;;
2020/09/04 04:18:52;;;;;;;3.35;3.05;;;;;;;15.92;78.64844;96039.2;;;;
2020/09/04 04:19:54;;;;;;;3.35;3.05;;;;;;;15.92;78.64844;96039.2;;;;
2020/09/04 04:20:55;;;;;;;3.35;3.05;;;;;;;15.92;78.64844;96039.2;;;;
2020/09/04 04:21:55;;;;;;;3.35;3.05;;;;;;;15.92;78.64844;96039.2;;;;
2020/09/04 04:23:05;;;;;;;3.35;3.05;;;;;;;15.92;78.64844;96039.2;;;;
2020/09/04 04:24:07;;;;;;;3.35;3.05;;;;;;;15.92;78.64844;96039.2;;;;
2020/09/04 04:25:07;;;;;;;3.35;3.05;;;;;;;15.92;78.64844;96039.2;;;;
2020/09/04 04:26:11;;;;;;;3.4;3.1;;;;;;;15.94;78.82324;96052.59;;;;
2020/09/04 04:27:13;;;;;;;3.4;3.1;;;;;;;15.94;78.82324;96052.59;;;;
2020/09/04 04:28:14;;;;;;;3.4;3.1;;;;;;;15.94;78.82324;96052.59;;;;
2020/09/04 04:29:15;;;;;;;3.4;3.1;;;;;;;15.94;78.82324;96052.59;;;;
2020/09/04 04:30:16;;;;;;;3.4;3.1;;;;;;;15.94;78.82324;96052.59;;;;
2020/09/04 04:31:16;;;;;;;3.4;3.1;;;;;;;15.94;78.82324;96052.59;;;;
2020/09/04 04:32:17;;;;;;;3.4;3.1;;;;;;;15.94;78.82324;96052.59;;;;
2020/09/04 04:33:20;;;;;;;3.4;3.1;;;;;;;15.94;78.82324;96052.59;;;;
2020/09/04 04:34:20;;;;;;;3.4;3.1;;;;;;;15.94;78.82324;96052.59;;;;
2020/09/04 04:35:21;;;;;;;3.4;3.1;;;;;;;15.94;78.82324;96052.59;;;;
2020/09/04 04:36:22;;;;;;;3.45;3.15;;;;;;;15.86;78.92871;96054.25;;;;
2020/09/04 04:37:23;;;;;;;3.45;3.15;;;;;;;15.86;78.92871;96054.25;;;;
2020/09/04 04:38:26;;;;;;;3.45;3.15;;;;;;;15.86;78.92871;96054.25;;;;
2020/09/04 04:39:29;;;;;;;3.45;3.15;;;;;;;15.86;78.92871;96054.25;;;;
2020/09/04 04:40:36;;;;;;;3.45;3.15;;;;;;;15.86;78.92871;96054.25;;;;
2020/09/04 04:41:36;;;;;;;3.45;3.15;;;;;;;15.86;78.92871;96054.25;;;;
2020/09/04 04:42:41;;;;;;;3.45;3.15;;;;;;;15.86;78.92871;96054.25;;;;
2020/09/04 04:43:57;;;;;;;3.45;3.15;;;;;;;15.86;78.92871;96054.25;;;;
2020/09/04 04:44:59;;;;;;;3.45;3.15;;;;;;;15.86;78.92871;96054.25;;;;
2020/09/04 04:46:05;;;;;;;3.45;3.15;;;;;;;15.86;78.92871;96054.25;;;;
2020/09/04 04:47:07;;;;;;;3.6;3.3;;;;;;;15.78;79.11035;96062.83;;;;
2020/09/04 04:48:08;;;;;;;3.6;3.3;;;;;;;15.78;79.11035;96062.83;;;;
2020/09/04 04:49:11;;;;;;;3.6;3.3;;;;;;;15.78;79.11035;96062.83;;;;
2020/09/04 04:50:13;;;;;;;3.6;3.3;;;;;;;15.78;79.11035;96062.83;;;;
2020/09/04 04:51:22;;;;;;;3.6;3.3;;;;;;;15.78;79.11035;96062.83;;;;
2020/09/04 04:52:24;;;;;;;3.6;3.3;;;;;;;15.78;79.11035;96062.83;;;;
2020/09/04 04:53:28;;;;;;;3.6;3.3;;;;;;;15.78;79.11035;96062.83;;;;
2020/09/04 04:54:28;;;;;;;3.6;3.3;;;;;;;15.78;79.11035;96062.83;;;;
2020/09/04 04:55:35;;;;;;;3.6;3.3;;;;;;;15.78;79.11035;96062.83;;;;
2020/09/04 04:56:42;;;;;;;3.6;3.3;;;;;;;15.78;79.11035;96062.83;;;;
2020/09/04 04:58:11;;;;;;;3.7;3.35;;;;;;;15.56;79.54492;96076.9;;;;
2020/09/04 04:59:13;;;;;;;3.7;3.35;;;;;;;15.56;79.54492;96076.9;;;;
2020/09/04 05:00:14;;;;;;;3.7;3.35;;;;;;;15.56;79.54492;96076.9;;;;
2020/09/04 05:01:21;;;;;;;3.7;3.35;;;;;;;15.56;79.54492;96076.9;;;;
2020/09/04 05:02:22;;;;;;;3.7;3.35;;;;;;;15.56;79.54492;96076.9;;;;
2020/09/04 05:03:22;;;;;;;3.7;3.35;;;;;;;15.56;79.54492;96076.9;;;;
2020/09/04 05:04:24;;;;;;;3.7;3.35;;;;;;;15.56;79.54492;96076.9;;;;
2020/09/04 05:05:24;;;;;;;3.7;3.35;;;;;;;15.56;79.54492;96076.9;;;;
2020/09/04 05:06:35;;;;;;;3.7;3.35;;;;;;;15.56;79.54492;96076.9;;;;
2020/09/04 05:07:35;;;;;;;3.7;3.35;;;;;;;15.56;79.54492;96076.9;;;;
2020/09/04 05:08:36;;;;;;;3.75;3.2;;;;;;;15.55;80.18066;96070.34;;;;
2020/09/04 05:09:36;;;;;;;3.75;3.2;;;;;;;15.55;80.18066;96070.34;;;;
2020/09/04 05:10:37;;;;;;;3.75;3.2;;;;;;;15.55;80.18066;96070.34;;;;
2020/09/04 05:11:37;;;;;;;3.75;3.2;;;;;;;15.55;80.18066;96070.34;;;;
2020/09/04 05:12:40;;;;;;;3.75;3.2;;;;;;;15.55;80.18066;96070.34;;;;
2020/09/04 05:13:40;;;;;;;3.75;3.2;;;;;;;15.55;80.18066;96070.34;;;;
2020/09/04 05:14:41;;;;;;;3.75;3.2;;;;;;;15.55;80.18066;96070.34;;;;
2020/09/04 05:15:41;;;;;;;3.75;3.2;;;;;;;15.55;80.18066;96070.34;;;;
2020/09/04 05:16:42;;;;;;;3.75;3.2;;;;;;;15.55;80.18066;96070.34;;;;
2020/09/04 05:17:43;;;;;;;3.75;3.2;;;;;;;15.55;80.18066;96070.34;;;;
2020/09/04 05:18:43;;;;;;;3.75;3.2;;;;;;;15.55;80.18066;96070.34;;;;
2020/09/04 05:19:55;;;;;;;3.55;3.25;;;;;;;15.68;80.14941;96070.03;;;;
2020/09/04 05:20:55;;;;;;;3.55;3.25;;;;;;;15.68;80.14941;96070.03;;;;
2020/09/04 05:21:56;;;;;;;3.55;3.25;;;;;;;15.68;80.14941;96070.03;;;;
2020/09/04 05:22:59;;;;;;;3.55;3.25;;;;;;;15.68;80.14941;96070.03;;;;
2020/09/04 05:24:00;;;;;;;3.55;3.25;;;;;;;15.68;80.14941;96070.03;;;;
2020/09/04 05:25:02;;;;;;;3.55;3.25;;;;;;;15.68;80.14941;96070.03;;;;
2020/09/04 05:26:05;;;;;;;3.55;3.25;;;;;;;15.68;80.14941;96070.03;;;;
2020/09/04 05:27:05;;;;;;;3.55;3.25;;;;;;;15.68;80.14941;96070.03;;;;
2020/09/04 05:28:10;;;;;;;3.55;3.25;;;;;;;15.68;80.14941;96070.03;;;;
2020/09/04 05:29:13;;;;;;;3.55;3.25;;;;;;;15.68;80.14941;96070.03;;;;
2020/09/04 05:30:13;;;;;;;3.750001;3.35;;;;;;;15.82;80.19824;96070.79;;;;
2020/09/04 05:31:15;;;;;;;3.750001;3.35;;;;;;;15.82;80.19824;96070.79;;;;
2020/09/04 05:32:16;;;;;;;3.750001;3.35;;;;;;;15.82;80.19824;96070.79;;;;
2020/09/04 05:33:16;;;;;;;3.750001;3.35;;;;;;;15.82;80.19824;96070.79;;;;
2020/09/04 05:34:21;;;;;;;3.750001;3.35;;;;;;;15.82;80.19824;96070.79;;;;
2020/09/04 05:35:21;;;;;;;3.750001;3.35;;;;;;;15.82;80.19824;96070.79;;;;
2020/09/04 05:36:38;;;;;;;3.750001;3.35;;;;;;;15.82;80.19824;96070.79;;;;
2020/09/04 05:37:39;;;;;;;3.750001;3.35;;;;;;;15.82;80.19824;96070.79;;;;
2020/09/04 05:38:39;;;;;;;3.750001;3.35;;;;;;;15.82;80.19824;96070.79;;;;
2020/09/04 05:39:40;;;;;;;3.750001;3.35;;;;;;;15.82;80.19824;96070.79;;;;
2020/09/04 05:40:41;;;;;;;4;3.2;;;;;;;15.97;80.2041;96068.28;;;;
2020/09/04 05:41:42;;;;;;;4;3.2;;;;;;;15.97;80.2041;96068.28;;;;
2020/09/04 05:42:43;;;;;;;4;3.2;;;;;;;15.97;80.2041;96068.28;;;;
2020/09/04 05:43:43;;;;;;;4;3.2;;;;;;;15.97;80.2041;96068.28;;;;
2020/09/04 05:44:44;;;;;;;4;3.2;;;;;;;15.97;80.2041;96068.28;;;;
2020/09/04 05:45:44;;;;;;;4;3.2;;;;;;;15.97;80.2041;96068.28;;;;
2020/09/04 05:46:45;;;;;;;4;3.2;;;;;;;15.97;80.2041;96068.28;;;;
2020/09/04 05:47:45;;;;;;;4;3.2;;;;;;;15.97;80.2041;96068.28;;;;
2020/09/04 05:48:46;;;;;;;4;3.2;;;;;;;15.97;80.2041;96068.28;;;;
2020/09/04 05:49:56;;;;;;;4;3.2;;;;;;;15.97;80.2041;96068.28;;;;
2020/09/04 05:50:56;;;;;;;4;3.2;;;;;;;15.97;80.2041;96068.28;;;;
2020/09/04 05:51:57;;;;;;;3.5;3.2;;;;;;;16.27;80.04004;96066.53;;;;
2020/09/04 05:52:58;;;;;;;3.5;3.2;;;;;;;16.27;80.04004;96066.53;;;;